Time;durP1;ratioP1;P1;durP2;ratioP2;P2;SDS_P1;SDS_P2;PMS_P1;PMS_P2;Temp;Humidity;BMP_temperature;BMP_pressure;BME280_temperature;BME280_humidity;BME280_pressure;Samples;Min_cycle;Max_cycle;Signal;HPM_P1;HPM_P2
2023/09/27 00:00:30;;;;;;;0.22;0.22;;;;;;;21.46;36.82;101725.69;5068250;28;20375;-82
2023/09/27 00:02:57;;;;;;;0.20;0.20;;;;;;;21.42;37.06;101718.22;5051043;28;20406;-82
2023/09/27 00:05:24;;;;;;;0.10;0.10;;;;;;;21.30;37.46;101709.97;5068761;28;20916;-82
2023/09/27 00:07:51;;;;;;;0.20;0.20;;;;;;;21.11;37.87;101717.16;5067224;28;21280;-84
2023/09/27 00:10:17;;;;;;;0.28;0.28;;;;;;;20.96;38.10;101707.50;5068738;28;20378;-84
2023/09/27 00:12:46;;;;;;;0.20;0.20;;;;;;;20.99;38.04;101704.38;5068208;28;20889;-83
2023/09/27 00:15:12;;;;;;;0.30;0.30;;;;;;;20.99;37.94;101693.59;5068579;28;20375;-83
2023/09/27 00:17:40;;;;;;;0.22;0.22;;;;;;;20.93;38.08;101705.22;5067023;28;20777;-83
2023/09/27 00:20:11;;;;;;;0.10;0.10;;;;;;;20.87;38.20;101699.84;5066683;28;20824;-83
2023/09/27 00:22:37;;;;;;;0.30;0.20;;;;;;;20.89;38.38;101706.69;5068410;28;20371;-84
2023/09/27 00:25:08;;;;;;;0.30;0.30;;;;;;;20.91;38.50;101690.31;5068181;28;20730;-83
2023/09/27 00:27:52;;;;;;;0.20;0.20;;;;;;;20.88;38.71;101694.25;5067028;28;20501;-83
2023/09/27 00:30:20;;;;;;;0.28;0.28;;;;;;;20.90;38.47;101691.34;5051829;28;20503;-83
2023/09/27 00:32:46;;;;;;;0.30;0.30;;;;;;;20.84;38.52;101693.03;5066950;28;20379;-83
2023/09/27 00:35:19;;;;;;;2.97;0.50;;;;;;;20.81;38.75;101698.84;5067380;28;20375;-83
2023/09/27 00:37:46;;;;;;;0.20;0.20;;;;;;;20.78;38.85;101688.50;5068004;28;20464;-83
2023/09/27 00:40:15;;;;;;;0.20;0.20;;;;;;;20.73;39.09;101694.53;5066491;28;20387;-84
2023/09/27 00:42:49;;;;;;;0.23;0.23;;;;;;;20.76;39.04;101685.19;5065743;28;20383;-83
2023/09/27 00:45:17;;;;;;;0.30;0.30;;;;;;;20.71;39.06;101699.31;5066346;28;20478;-83
2023/09/27 00:47:45;;;;;;;0.20;0.20;;;;;;;20.69;39.19;101690.63;5065129;28;20425;-83
2023/09/27 00:50:13;;;;;;;0.20;0.20;;;;;;;20.70;39.12;101694.13;5066974;28;20464;-84
2023/09/27 00:52:47;;;;;;;0.10;0.10;;;;;;;20.56;39.37;101696.84;5068777;28;20375;-85
2023/09/27 00:55:16;;;;;;;0.70;0.60;;;;;;;20.39;39.75;101696.47;5069049;28;20789;-83
2023/09/27 00:57:48;;;;;;;0.20;0.20;;;;;;;20.39;39.64;101691.09;5069297;28;20383;-82
2023/09/27 01:00:15;;;;;;;0.30;0.30;;;;;;;20.36;39.60;101694.19;5051414;28;20421;-82
2023/09/27 01:02:44;;;;;;;0.20;0.20;;;;;;;20.29;39.59;101700.63;5066697;28;20812;-82
2023/09/27 01:05:09;;;;;;;1.02;0.50;;;;;;;20.24;39.93;101699.41;5067007;28;20417;-82
2023/09/27 01:07:37;;;;;;;0.20;0.20;;;;;;;20.27;39.71;101697.34;5067969;28;20395;-81
2023/09/27 01:10:03;;;;;;;0.10;0.10;;;;;;;20.22;39.68;101698.81;5067518;28;20379;-82
2023/09/27 01:12:29;;;;;;;0.60;0.57;;;;;;;20.15;40.02;101699.81;5082619;28;20403;-82
2023/09/27 01:14:56;;;;;;;1.20;0.70;;;;;;;20.17;39.98;101698.59;5067582;28;20379;-81
2023/09/27 01:17:21;;;;;;;0.20;0.20;;;;;;;20.16;39.91;101701.50;5090934;28;20391;-81
2023/09/27 01:19:47;;;;;;;0.20;0.20;;;;;;;20.16;39.90;101702.31;5068945;28;20759;-82
2023/09/27 01:22:12;;;;;;;0.23;0.23;;;;;;;20.17;39.85;101701.28;5067879;28;20379;-82
2023/09/27 01:24:39;;;;;;;0.25;0.25;;;;;;;20.08;39.90;101699.00;5066317;28;20545;-82
2023/09/27 01:27:09;;;;;;;0.20;0.20;;;;;;;20.00;40.22;101703.56;5066611;28;20441;-81
2023/09/27 01:29:34;;;;;;;0.13;0.13;;;;;;;19.98;40.38;101704.81;5066703;28;20411;-82
2023/09/27 01:32:00;;;;;;;0.20;0.20;;;;;;;19.85;40.67;101694.91;5067973;28;20379;-81
2023/09/27 01:34:30;;;;;;;0.20;0.20;;;;;;;19.84;40.63;101699.47;5066223;28;20387;-82
2023/09/27 01:36:56;;;;;;;0.17;0.17;;;;;;;19.83;40.61;101700.50;5067350;28;20431;-82
2023/09/27 01:39:21;;;;;;;0.37;0.17;;;;;;;19.77;40.62;101695.09;5065768;28;20390;-81
2023/09/27 01:41:47;;;;;;;0.10;0.10;;;;;;;19.78;40.57;101688.69;5066422;28;20411;-81
2023/09/27 01:44:14;;;;;;;0.10;0.10;;;;;;;19.76;40.59;101699.66;5067993;28;20435;-85
2023/09/27 01:46:41;;;;;;;0.50;0.50;;;;;;;19.57;41.13;101697.75;5065689;28;20847;-84
2023/09/27 01:51:38;;;;;;;0.17;0.17;;;;;;;19.41;41.42;101715.94;5044986;28;20922;-83
2023/09/27 01:54:05;;;;;;;0.25;0.25;;;;;;;19.48;41.27;101697.13;5046162;28;20396;-84
2023/09/27 01:56:30;;;;;;;0.20;0.20;;;;;;;19.52;41.16;101687.63;5046969;28;20419;-82
2023/09/27 01:59:01;;;;;;;0.30;0.30;;;;;;;19.55;40.90;101697.13;5045405;28;20427;-83
2023/09/27 02:01:27;;;;;;;0.70;0.70;;;;;;;19.54;41.02;101696.31;5047189;28;20402;-83
2023/09/27 02:03:56;;;;;;;0.25;0.25;;;;;;;19.57;41.01;101697.75;5047615;28;20744;-80
2023/09/27 02:06:23;;;;;;;0.20;0.20;;;;;;;19.53;41.08;101685.75;5045007;28;20446;-80
2023/09/27 02:08:49;;;;;;;0.20;0.20;;;;;;;19.51;41.00;101698.59;5046756;28;20447;-81
2023/09/27 02:11:14;;;;;;;0.20;0.20;;;;;;;19.43;41.11;101689.69;5047304;28;20836;-81
2023/09/27 02:13:40;;;;;;;0.20;0.20;;;;;;;19.42;41.34;101692.56;5052915;28;20429;-81
2023/09/27 02:16:08;;;;;;;0.30;0.30;;;;;;;19.32;41.31;101698.38;5047509;28;20720;-81
2023/09/27 02:18:52;;;;;;;0.20;0.20;;;;;;;19.26;41.46;101693.78;5048003;28;20388;-81
2023/09/27 02:21:18;;;;;;;0.20;0.20;;;;;;;19.21;41.66;101696.25;5047079;28;20380;-82
2023/09/27 02:23:48;;;;;;;0.30;0.30;;;;;;;19.21;41.74;101704.31;5047967;28;20501;-80
2023/09/27 02:26:13;;;;;;;0.30;0.30;;;;;;;19.16;41.72;101702.25;5046066;28;20388;-81
2023/09/27 02:28:39;;;;;;;0.20;0.20;;;;;;;19.14;41.86;101709.69;5047123;28;20473;-82
2023/09/27 02:31:12;;;;;;;0.20;0.20;;;;;;;19.08;42.18;101710.47;5048064;28;20419;-81
2023/09/27 02:33:38;;;;;;;0.30;0.30;;;;;;;18.93;42.69;101707.97;5049863;28;20768;-82
2023/09/27 02:36:04;;;;;;;0.80;0.70;;;;;;;18.77;43.18;101708.28;5049268;28;20830;-82
2023/09/27 02:38:30;;;;;;;0.40;0.33;;;;;;;18.72;43.21;101701.63;5050085;28;20400;-82
2023/09/27 02:40:55;;;;;;;0.50;0.50;;;;;;;18.68;43.40;101695.00;5054754;28;20453;-82
2023/09/27 02:43:24;;;;;;;0.20;0.20;;;;;;;18.78;43.09;101709.91;5053792;28;20407;-82
2023/09/27 02:45:52;;;;;;;0.30;0.30;;;;;;;18.75;43.29;101708.47;5053119;28;20423;-82
2023/09/27 02:48:23;;;;;;;0.20;0.20;;;;;;;18.54;43.82;101706.72;5055839;28;20416;-82
2023/09/27 02:50:55;;;;;;;0.22;0.22;;;;;;;18.11;45.08;101710.41;5053597;28;20901;-82
2023/09/27 02:53:21;;;;;;;0.17;0.17;;;;;;;18.06;45.12;101712.81;5052878;28;20377;-80
2023/09/27 02:55:47;;;;;;;0.15;0.15;;;;;;;18.11;44.71;101722.97;5056699;28;20529;-82
2023/09/27 02:58:15;;;;;;;0.10;0.10;;;;;;;18.23;44.55;101716.03;5052831;28;20930;-82
2023/09/27 03:00:41;;;;;;;0.10;0.10;;;;;;;18.29;44.19;101715.25;5050834;28;20388;-82
2023/09/27 03:03:07;;;;;;;0.30;0.30;;;;;;;18.27;44.43;101721.84;5049202;28;20373;-82
2023/09/27 03:05:37;;;;;;;0.20;0.20;;;;;;;18.25;44.63;101730.09;5050256;28;20467;-81
2023/09/27 03:08:04;;;;;;;0.20;0.20;;;;;;;18.08;44.92;101729.56;5050303;28;20512;-81
2023/09/27 03:10:30;;;;;;;0.10;0.10;;;;;;;18.07;45.01;101725.19;5048256;28;20825;-81
2023/09/27 03:12:58;;;;;;;0.10;0.10;;;;;;;18.09;44.98;101717.78;5065312;28;20393;-81
2023/09/27 03:15:24;;;;;;;0.25;0.25;;;;;;;18.13;44.89;101726.28;5048556;28;20397;-80
2023/09/27 03:17:50;;;;;;;0.10;0.10;;;;;;;18.17;44.62;101732.06;5048820;28;20385;-80
2023/09/27 03:20:16;;;;;;;0.10;0.10;;;;;;;18.31;44.45;101729.31;5062300;28;20387;-80
2023/09/27 03:22:46;;;;;;;0.10;0.10;;;;;;;18.37;44.11;101727.69;5069791;28;20464;-81
2023/09/27 03:25:12;;;;;;;0.17;0.17;;;;;;;18.47;44.05;101733.50;5064294;28;20398;-81
2023/09/27 03:27:38;;;;;;;0.10;0.10;;;;;;;18.40;43.91;101723.78;5064129;28;20445;-83
2023/09/27 03:30:05;;;;;;;0.10;0.10;;;;;;;18.36;44.09;101731.38;5050877;28;20396;-80
2023/09/27 03:32:32;;;;;;;0.10;0.10;;;;;;;18.30;44.20;101727.63;5039200;28;20394;-80
2023/09/27 03:34:58;;;;;;;0.00;0.00;;;;;;;18.18;44.60;101737.25;5012115;28;20460;-79
2023/09/27 03:37:23;;;;;;;0.13;0.13;;;;;;;18.10;44.96;101742.78;5026529;28;20444;-83
2023/09/27 03:39:52;;;;;;;0.90;0.90;;;;;;;17.80;46.02;101750.13;5028661;28;20826;-83
2023/09/27 03:42:20;;;;;;;0.20;0.20;;;;;;;17.75;46.18;101751.53;5028604;28;20389;-81
2023/09/27 03:44:47;;;;;;;0.10;0.10;;;;;;;17.67;46.45;101753.53;4997340;28;20402;-82
2023/09/27 03:47:12;;;;;;;0.10;0.10;;;;;;;17.66;46.28;101752.66;5012164;28;20464;-79
2023/09/27 03:49:40;;;;;;;0.30;0.30;;;;;;;17.74;45.88;101743.69;5027402;28;20465;-84
2023/09/27 03:52:10;;;;;;;0.10;0.10;;;;;;;17.74;45.78;101752.56;5028184;28;20901;-83
2023/09/27 03:54:37;;;;;;;0.10;0.10;;;;;;;17.62;46.31;101750.56;5011358;28;20477;-83
2023/09/27 03:57:06;;;;;;;0.10;0.10;;;;;;;17.42;46.95;101745.00;5028662;28;20386;-84
2023/09/27 03:59:34;;;;;;;0.20;0.20;;;;;;;17.56;46.39;101750.31;5044636;28;20471;-84
2023/09/27 04:01:59;;;;;;;0.10;0.10;;;;;;;17.74;45.87;101751.72;5028254;28;20390;-83
2023/09/27 04:04:26;;;;;;;0.32;0.32;;;;;;;17.69;46.15;101751.47;5048158;28;20388;-85
2023/09/27 04:06:53;;;;;;;0.10;0.10;;;;;;;17.67;46.11;101746.28;5052674;28;20531;-85
2023/09/27 04:09:23;;;;;;;0.10;0.10;;;;;;;17.58;46.24;101750.94;5053074;28;20408;-84
2023/09/27 04:11:50;;;;;;;0.15;0.15;;;;;;;17.47;46.37;101745.28;5045896;28;20469;-82
2023/09/27 04:14:17;;;;;;;0.10;0.10;;;;;;;17.53;46.66;101753.38;5048043;28;20393;-83
2023/09/27 04:16:43;;;;;;;0.60;0.60;;;;;;;17.52;46.62;101751.72;5046276;28;20748;-83
2023/09/27 04:19:10;;;;;;;0.10;0.10;;;;;;;17.55;46.29;101758.53;5047291;28;20921;-78
2023/09/27 04:21:38;;;;;;;0.20;0.20;;;;;;;17.67;46.14;101756.19;5048794;28;20522;-79
2023/09/27 04:24:13;;;;;;;0.10;0.10;;;;;;;17.72;45.80;101757.28;5048667;28;20399;-83
2023/09/27 04:26:38;;;;;;;0.50;0.50;;;;;;;17.69;45.78;101767.56;5051190;28;20388;-82
2023/09/27 04:29:04;;;;;;;0.37;0.37;;;;;;;17.51;46.56;101766.13;5049067;28;20401;-83
2023/09/27 04:31:34;;;;;;;0.20;0.20;;;;;;;17.34;47.27;101773.59;5049596;28;20372;-89
2023/09/27 04:34:00;;;;;;;0.55;0.55;;;;;;;17.03;48.37;101768.47;5047586;28;20401;-85
2023/09/27 04:36:25;;;;;;;0.20;0.20;;;;;;;17.05;48.17;101781.69;5048758;28;20819;-85
2023/09/27 04:38:51;;;;;;;0.50;0.50;;;;;;;17.12;47.97;101774.56;5027645;28;20432;-86
2023/09/27 04:41:18;;;;;;;0.30;0.30;;;;;;;17.12;48.17;101774.56;5028652;28;20386;-85
2023/09/27 04:43:47;;;;;;;0.30;0.30;;;;;;;17.13;48.06;101776.22;5027523;28;20484;-87
2023/09/27 04:46:18;;;;;;;7.80;0.43;;;;;;;17.32;47.56;101777.47;5014437;28;20406;-85
2023/09/27 04:48:44;;;;;;;5.03;0.90;;;;;;;17.38;47.32;101772.19;5012284;28;20513;-87
2023/09/27 04:51:11;;;;;;;0.30;0.30;;;;;;;17.44;47.34;101780.50;5020855;28;20417;-83
2023/09/27 04:53:37;;;;;;;0.30;0.30;;;;;;;17.45;47.28;101782.13;5034194;28;20893;-87
2023/09/27 04:56:12;;;;;;;0.50;0.30;;;;;;;17.43;47.46;101777.00;5028588;28;20398;-86
2023/09/27 04:58:41;;;;;;;0.30;0.30;;;;;;;17.45;47.41;101774.94;5027430;28;20402;-86
2023/09/27 05:01:08;;;;;;;0.20;0.20;;;;;;;17.38;47.43;101769.50;5028969;28;20387;-86
2023/09/27 05:03:34;;;;;;;0.20;0.20;;;;;;;17.39;47.53;101776.53;5012488;28;20410;-85
2023/09/27 05:06:01;;;;;;;0.20;0.20;;;;;;;17.42;47.62;101788.72;5028784;28;20394;-86
2023/09/27 05:08:26;;;;;;;0.32;0.32;;;;;;;17.17;48.50;101780.19;5027367;28;20402;-86
2023/09/27 05:10:52;;;;;;;0.50;0.50;;;;;;;17.11;48.60;101788.97;5050968;28;20797;-85
2023/09/27 05:13:21;;;;;;;0.20;0.20;;;;;;;17.05;48.92;101795.06;5058886;28;20393;-85
2023/09/27 05:15:48;;;;;;;0.30;0.30;;;;;;;17.02;49.14;101788.25;5034529;28;20390;-85
2023/09/27 05:18:20;;;;;;;0.50;0.50;;;;;;;17.11;48.92;101783.63;5047897;28;20386;-84
2023/09/27 05:20:46;;;;;;;0.30;0.30;;;;;;;17.19;48.63;101780.81;5063456;28;20383;-85
2023/09/27 05:23:12;;;;;;;0.20;0.20;;;;;;;17.31;48.10;101776.66;5089639;28;20407;-85
2023/09/27 05:25:38;;;;;;;0.20;0.20;;;;;;;17.43;48.08;101785.03;5079782;28;20378;-86
2023/09/27 05:28:04;;;;;;;1.35;0.45;;;;;;;17.47;48.03;101788.16;5071562;28;20931;-86
2023/09/27 05:30:31;;;;;;;0.20;0.20;;;;;;;17.53;48.18;101793.59;5069900;28;20968;-85
2023/09/27 05:32:57;;;;;;;0.68;0.68;;;;;;;17.53;48.26;101792.75;5070898;28;20770;-85
2023/09/27 05:35:23;;;;;;;0.80;0.40;;;;;;;17.50;48.68;101793.97;5070975;28;20383;-85
2023/09/27 05:37:50;;;;;;;0.50;0.40;;;;;;;17.30;49.10;101788.38;5059068;28;20833;-86
2023/09/27 05:40:16;;;;;;;0.65;0.40;;;;;;;17.39;49.09;101792.63;5058313;28;20466;-84
2023/09/27 05:42:42;;;;;;;0.28;0.28;;;;;;;17.32;49.25;101794.41;5040387;28;20478;-85
2023/09/27 05:45:11;;;;;;;0.73;0.60;;;;;;;17.23;49.80;101800.03;5063896;28;20387;-82
2023/09/27 05:47:39;;;;;;;0.30;0.25;;;;;;;17.28;49.88;101801.13;5053100;28;20391;-81
2023/09/27 05:50:08;;;;;;;0.20;0.20;;;;;;;17.41;49.54;101805.00;5066376;28;20537;-85
2023/09/27 05:52:35;;;;;;;0.30;0.30;;;;;;;17.46;49.78;101808.75;5053497;28;20414;-84
2023/09/27 05:55:06;;;;;;;0.55;0.30;;;;;;;17.56;49.65;101808.47;5070293;28;20444;-88
2023/09/27 05:57:49;;;;;;;0.70;0.40;;;;;;;17.54;49.84;101805.97;5059787;28;20399;-87
2023/09/27 06:00:22;;;;;;;0.63;0.40;;;;;;;17.66;49.56;101806.28;5061582;28;20397;-87
2023/09/27 06:02:49;;;;;;;0.52;0.40;;;;;;;17.77;49.76;101818.38;5063431;28;20375;-86
2023/09/27 06:05:18;;;;;;;0.90;0.50;;;;;;;17.93;49.52;101820.88;5059818;28;20392;-86
2023/09/27 06:07:43;;;;;;;0.75;0.38;;;;;;;17.98;49.76;101816.75;5058209;28;20402;-86
2023/09/27 06:10:11;;;;;;;0.77;0.63;;;;;;;18.08;49.58;101818.09;5055072;28;20408;-86
2023/09/27 06:12:38;;;;;;;0.30;0.22;;;;;;;18.17;49.20;101816.13;5054487;28;20875;-84
2023/09/27 06:15:05;;;;;;;0.52;0.45;;;;;;;18.18;49.40;101827.69;5061212;28;20724;-84
2023/09/27 06:17:31;;;;;;;0.68;0.45;;;;;;;18.18;49.41;101816.94;5058767;28;20395;-83
2023/09/27 06:20:05;;;;;;;1.05;0.50;;;;;;;18.39;49.12;101829.50;5056484;28;20479;-84
2023/09/27 06:22:34;;;;;;;1.58;1.00;;;;;;;18.34;49.35;101814.78;5072196;28;20393;-85
2023/09/27 06:25:00;;;;;;;0.50;0.30;;;;;;;18.41;49.26;101822.09;5055196;28;20903;-85
2023/09/27 06:27:25;;;;;;;0.40;0.40;;;;;;;18.52;49.16;101814.31;5053281;28;20392;-85
2023/09/27 06:29:51;;;;;;;0.50;0.50;;;;;;;18.71;48.88;101818.16;5053743;28;20487;-85
2023/09/27 06:32:17;;;;;;;0.32;0.30;;;;;;;18.80;48.90;101823.38;5054582;28;20446;-85
2023/09/27 06:34:52;;;;;;;0.40;0.40;;;;;;;18.81;48.80;101816.97;5054580;28;20819;-84
2023/09/27 06:37:18;;;;;;;0.38;0.30;;;;;;;18.97;48.63;101823.94;5055935;28;20407;-86
2023/09/27 06:39:44;;;;;;;0.30;0.30;;;;;;;19.09;48.27;101827.72;5054729;28;20457;-85
2023/09/27 06:42:12;;;;;;;0.40;0.30;;;;;;;19.32;47.98;101826.56;5053684;28;20388;-87
2023/09/27 06:44:40;;;;;;;0.28;0.28;;;;;;;19.48;47.68;101834.25;5070642;28;20418;-85
2023/09/27 06:47:06;;;;;;;0.30;0.30;;;;;;;19.53;47.20;101821.03;5062929;28;20385;-87
2023/09/27 06:49:37;;;;;;;0.40;0.35;;;;;;;19.69;47.04;101830.63;5070407;28;20411;-87
2023/09/27 06:52:03;;;;;;;0.30;0.30;;;;;;;19.79;46.72;101827.56;5075105;28;20387;-85
2023/09/27 06:54:29;;;;;;;0.63;0.63;;;;;;;19.88;46.51;101822.81;5067737;28;20451;-86
2023/09/27 06:56:55;;;;;;;0.40;0.30;;;;;;;20.03;46.42;101832.34;5064995;28;20399;-85
2023/09/27 06:59:21;;;;;;;1.00;0.90;;;;;;;20.11;46.09;101831.31;5053517;28;20399;-86
2023/09/27 07:01:50;;;;;;;0.40;0.40;;;;;;;20.28;45.88;101834.44;5055343;28;20479;-87
2023/09/27 07:04:18;;;;;;;0.30;0.30;;;;;;;20.37;45.63;101838.59;5042503;28;20466;-87
2023/09/27 07:06:45;;;;;;;0.30;0.30;;;;;;;20.51;45.32;101841.25;5058573;28;20396;-87
2023/09/27 07:09:16;;;;;;;0.20;0.20;;;;;;;20.64;45.10;101841.28;5057665;28;20416;-87
2023/09/27 07:11:44;;;;;;;1.42;1.02;;;;;;;20.77;44.86;101832.34;5056448;28;20377;-87
2023/09/27 07:14:12;;;;;;;0.30;0.30;;;;;;;20.88;44.76;101844.34;5071165;28;20396;-87
2023/09/27 07:16:38;;;;;;;0.35;0.22;;;;;;;20.94;44.77;101841.66;5056549;28;20419;-85
2023/09/27 07:19:05;;;;;;;0.37;0.33;;;;;;;21.02;44.33;101835.19;5056158;28;20442;-86
2023/09/27 07:21:34;;;;;;;0.20;0.20;;;;;;;21.14;44.03;101833.50;5054369;28;20819;-85
2023/09/27 07:24:00;;;;;;;1.10;0.80;;;;;;;21.29;43.71;101843.19;5054944;28;20423;-86
2023/09/27 07:26:29;;;;;;;0.30;0.30;;;;;;;21.41;43.55;101833.38;5062401;28;20373;-84
2023/09/27 07:28:58;;;;;;;0.20;0.20;;;;;;;21.52;43.38;101835.44;5054934;28;20424;-85
2023/09/27 07:31:27;;;;;;;0.30;0.30;;;;;;;21.76;42.96;101836.53;5050996;28;20420;-85
2023/09/27 07:33:55;;;;;;;0.20;0.20;;;;;;;21.88;41.98;101841.25;5052732;28;20779;-86
2023/09/27 07:36:24;;;;;;;0.25;0.25;;;;;;;21.96;41.62;101840.97;5051757;28;20388;-88
2023/09/27 07:38:50;;;;;;;0.60;0.60;;;;;;;22.01;41.21;101843.84;5034042;28;20511;-86
2023/09/27 07:41:16;;;;;;;0.33;0.33;;;;;;;22.22;41.03;101849.91;5047432;28;20431;-86
2023/09/27 07:43:42;;;;;;;0.30;0.30;;;;;;;22.29;40.91;101845.31;5051451;28;20475;-86
2023/09/27 07:46:14;;;;;;;0.30;0.30;;;;;;;22.38;40.61;101833.19;5052487;28;20461;-85
2023/09/27 07:48:43;;;;;;;0.30;0.30;;;;;;;22.38;40.12;101849.38;5035422;28;20416;-86
2023/09/27 07:51:12;;;;;;;0.20;0.20;;;;;;;22.50;39.75;101839.53;5051843;28;20417;-86
2023/09/27 07:53:39;;;;;;;0.45;0.45;;;;;;;22.62;39.50;101850.44;5032601;28;20420;-85
2023/09/27 07:56:10;;;;;;;0.20;0.20;;;;;;;22.77;39.14;101841.97;5051737;28;20983;-87
2023/09/27 07:58:41;;;;;;;0.20;0.20;;;;;;;22.84;39.20;101836.50;5034445;28;20454;-86
2023/09/27 08:01:12;;;;;;;4.60;1.00;;;;;;;22.90;38.81;101841.00;5032143;28;20440;-86
2023/09/27 08:03:38;;;;;;;0.47;0.47;;;;;;;23.04;38.88;101837.13;5031929;28;20804;-86
2023/09/27 08:06:05;;;;;;;0.40;0.30;;;;;;;23.13;38.62;101836.84;5032392;28;20382;-85
2023/09/27 08:08:31;;;;;;;0.35;0.20;;;;;;;23.21;38.28;101837.34;5032854;28;20468;-84
2023/09/27 08:10:57;;;;;;;0.50;0.40;;;;;;;23.25;38.06;101835.84;5030631;28;20739;-84
2023/09/27 08:13:25;;;;;;;0.73;0.73;;;;;;;23.41;37.87;101842.50;5032617;28;20482;-81
2023/09/27 08:15:51;;;;;;;0.30;0.30;;;;;;;23.52;38.01;101843.59;5031510;28;20754;-86
2023/09/27 08:18:19;;;;;;;0.30;0.30;;;;;;;23.57;37.24;101838.34;5030488;28;20394;-83
2023/09/27 08:20:46;;;;;;;0.40;0.40;;;;;;;23.69;37.19;101846.50;5031872;28;20912;-85
2023/09/27 08:23:17;;;;;;;0.40;0.30;;;;;;;23.81;37.33;101835.75;5032963;28;20382;-85
2023/09/27 08:25:45;;;;;;;0.50;0.50;;;;;;;23.77;37.76;101835.34;5034912;28;20441;-87
2023/09/27 08:28:11;;;;;;;0.20;0.20;;;;;;;23.92;37.91;101834.13;5036952;28;20394;-86
2023/09/27 08:30:36;;;;;;;0.20;0.20;;;;;;;23.90;37.73;101825.41;5036024;28;20895;-84
2023/09/27 08:33:03;;;;;;;0.60;0.43;;;;;;;23.99;37.42;101827.53;5033031;28;20409;-87
2023/09/27 08:35:28;;;;;;;0.20;0.20;;;;;;;24.02;36.62;101829.78;5050454;28;20915;-85
2023/09/27 08:37:54;;;;;;;0.20;0.20;;;;;;;24.19;36.70;101829.91;5049507;28;20392;-86
2023/09/27 08:40:21;;;;;;;0.47;0.40;;;;;;;24.29;36.50;101836.63;5032864;28;20456;-85
2023/09/27 08:42:51;;;;;;;0.20;0.20;;;;;;;24.40;36.26;101820.41;5033083;28;20461;-82
2023/09/27 08:45:21;;;;;;;0.20;0.20;;;;;;;24.44;35.89;101820.75;5034260;28;20400;-86
2023/09/27 08:47:50;;;;;;;0.20;0.20;;;;;;;24.48;35.60;101819.19;5033318;28;20420;-84
2023/09/27 08:50:18;;;;;;;0.30;0.30;;;;;;;24.51;35.02;101818.75;5030465;28;20912;-85
2023/09/27 08:52:48;;;;;;;0.30;0.30;;;;;;;24.66;35.08;101820.19;5014801;28;20633;-85
2023/09/27 08:55:16;;;;;;;0.30;0.30;;;;;;;24.75;34.73;101813.31;5048925;28;20380;-84
2023/09/27 08:57:46;;;;;;;0.40;0.30;;;;;;;24.73;34.59;101801.91;5051141;28;20396;-85
2023/09/27 09:00:19;;;;;;;0.43;0.43;;;;;;;24.89;34.66;101805.75;5052652;28;20467;-85
2023/09/27 09:02:52;;;;;;;0.32;0.32;;;;;;;24.99;34.57;101801.38;5037954;28;20389;-85
2023/09/27 09:05:22;;;;;;;0.33;0.23;;;;;;;24.79;34.32;101792.78;5037534;28;20978;-85
2023/09/27 09:07:50;;;;;;;0.38;0.20;;;;;;;24.76;34.19;101801.44;5034467;28;20897;-87
2023/09/27 09:10:16;;;;;;;0.30;0.30;;;;;;;24.89;33.96;101803.88;5035328;28;20410;-85
2023/09/27 09:12:44;;;;;;;0.30;0.30;;;;;;;25.00;33.94;101799.47;5034262;28;20401;-87
2023/09/27 09:15:14;;;;;;;0.20;0.20;;;;;;;25.13;34.14;101790.22;5049186;28;20444;-86
2023/09/27 09:17:52;;;;;;;0.40;0.40;;;;;;;25.17;33.99;101788.69;5032492;28;20386;-86
2023/09/27 09:20:23;;;;;;;0.30;0.30;;;;;;;25.13;34.12;101788.34;5032520;28;20390;-85
2023/09/27 09:23:02;;;;;;;0.30;0.30;;;;;;;25.17;33.85;101785.97;5059149;28;20426;-85
2023/09/27 09:25:29;;;;;;;0.40;0.40;;;;;;;25.28;33.55;101795.16;5054952;28;20396;-85
2023/09/27 09:28:09;;;;;;;0.20;0.20;;;;;;;25.23;33.23;101789.59;5086582;28;20405;-85
2023/09/27 09:30:40;;;;;;;0.88;0.80;;;;;;;25.31;33.28;101787.34;5057777;28;20399;-86
2023/09/27 09:33:11;;;;;;;1.17;0.80;;;;;;;25.33;33.46;101787.09;5054435;28;20404;-86
2023/09/27 09:35:37;;;;;;;0.30;0.30;;;;;;;25.34;33.62;101795.00;5035539;28;20405;-86
2023/09/27 09:38:03;;;;;;;0.70;0.50;;;;;;;25.36;33.87;101784.72;5051657;28;20441;-85
2023/09/27 09:40:31;;;;;;;0.20;0.20;;;;;;;25.36;33.76;101781.22;5086153;28;20771;-84
2023/09/27 09:42:59;;;;;;;0.30;0.30;;;;;;;25.40;33.86;101776.94;5052675;28;20781;-85
2023/09/27 09:45:26;;;;;;;0.20;0.20;;;;;;;25.51;33.78;101788.81;5065440;28;20372;-84
2023/09/27 09:47:53;;;;;;;0.75;0.65;;;;;;;25.65;33.71;101792.84;5091428;28;20466;-85
2023/09/27 09:50:21;;;;;;;0.20;0.20;;;;;;;25.57;33.68;101779.69;5058222;28;20452;-85
2023/09/27 09:53:09;;;;;;;0.20;0.20;;;;;;;25.79;33.65;101782.50;5059482;28;20416;-85
2023/09/27 09:55:36;;;;;;;0.40;0.40;;;;;;;25.79;33.62;101787.94;5054884;28;20393;-86
2023/09/27 09:58:57;;;;;;;0.10;0.10;;;;;;;25.83;34.29;101782.84;5093416;28;20480;-87
2023/09/27 10:01:28;;;;;;;0.20;0.20;;;;;;;25.97;33.97;101772.50;5025605;28;20398;-85
2023/09/27 10:03:56;;;;;;;0.30;0.30;;;;;;;26.09;33.86;101776.78;5054370;28;20404;-86
2023/09/27 10:06:23;;;;;;;0.23;0.23;;;;;;;26.03;33.72;101775.03;5074866;28;20438;-86
2023/09/27 10:08:49;;;;;;;0.40;0.30;;;;;;;26.07;33.45;101764.50;5057095;28;20424;-85
2023/09/27 10:11:17;;;;;;;0.55;0.40;;;;;;;26.19;33.44;101778.00;5074792;28;20462;-86
2023/09/27 10:13:43;;;;;;;0.28;0.28;;;;;;;26.09;32.75;101765.91;5060651;28;20389;-86
2023/09/27 10:16:10;;;;;;;0.15;0.15;;;;;;;26.27;33.28;101766.69;5073784;28;20415;-86
2023/09/27 10:18:46;;;;;;;0.20;0.20;;;;;;;26.23;33.18;101757.41;5072374;28;20389;-86
2023/09/27 10:21:15;;;;;;;0.30;0.30;;;;;;;26.19;32.74;101761.69;5055120;28;20388;-85
2023/09/27 10:23:45;;;;;;;0.20;0.20;;;;;;;26.21;32.84;101754.09;5059781;28;20373;-87
2023/09/27 10:26:31;;;;;;;0.40;0.40;;;;;;;26.29;32.93;101749.06;5061348;28;20395;-86
2023/09/27 10:29:06;;;;;;;0.45;0.30;;;;;;;26.33;32.91;101742.06;5056371;28;20417;-86
2023/09/27 10:31:40;;;;;;;0.20;0.20;;;;;;;26.39;32.85;101750.28;5088965;28;20454;-86
2023/09/27 10:34:41;;;;;;;0.30;0.25;;;;;;;26.41;33.10;101737.25;5057701;28;20385;-86
2023/09/27 10:37:09;;;;;;;0.30;0.30;;;;;;;26.42;32.72;101736.19;5088613;28;20399;-87
2023/09/27 10:39:39;;;;;;;0.30;0.30;;;;;;;26.41;32.85;101723.66;5055643;28;20424;-89
2023/09/27 10:42:06;;;;;;;0.37;0.30;;;;;;;26.46;32.71;101727.25;5054013;28;20397;-85
2023/09/27 10:44:34;;;;;;;0.17;0.17;;;;;;;26.65;32.51;101730.53;5088967;28;20388;-85
2023/09/27 10:47:03;;;;;;;0.35;0.32;;;;;;;26.69;32.20;101725.41;5056729;28;20453;-86
2023/09/27 10:49:37;;;;;;;0.32;0.28;;;;;;;26.73;32.00;101723.81;5071456;28;20400;-84
2023/09/27 10:52:05;;;;;;;0.45;0.40;;;;;;;26.77;31.75;101726.84;5037036;28;20424;-86
2023/09/27 10:54:32;;;;;;;0.65;0.40;;;;;;;26.64;31.59;101717.19;5051082;28;20431;-85
2023/09/27 10:56:58;;;;;;;0.30;0.30;;;;;;;26.65;32.03;101719.66;5054213;28;20409;-87
2023/09/27 10:59:26;;;;;;;0.38;0.38;;;;;;;26.81;31.51;101711.66;5056421;28;20810;-85
2023/09/27 11:01:53;;;;;;;0.30;0.30;;;;;;;26.73;31.03;101706.69;5054132;28;20440;-84
2023/09/27 11:04:23;;;;;;;0.40;0.40;;;;;;;26.74;31.36;101702.88;5054216;28;20913;-87
2023/09/27 11:06:52;;;;;;;0.57;0.57;;;;;;;26.91;31.69;101694.66;5034544;28;20847;-87
2023/09/27 11:09:22;;;;;;;0.20;0.20;;;;;;;27.01;31.13;101692.00;5055463;28;20869;-86
2023/09/27 11:12:19;;;;;;;0.60;0.50;;;;;;;27.03;30.94;101696.13;5060401;28;20441;-85
2023/09/27 11:14:46;;;;;;;0.57;0.40;;;;;;;27.17;31.19;101693.00;5057837;28;20392;-86
2023/09/27 11:17:22;;;;;;;0.32;0.30;;;;;;;27.16;31.28;101678.56;5074009;28;20446;-85
2023/09/27 11:19:48;;;;;;;0.40;0.40;;;;;;;27.25;31.55;101670.75;5059200;28;20392;-86
2023/09/27 11:22:28;;;;;;;0.30;0.30;;;;;;;27.37;30.81;101678.75;5039942;28;20832;-85
2023/09/27 11:24:59;;;;;;;0.50;0.50;;;;;;;27.31;30.95;101668.94;5020518;28;20458;-86
2023/09/27 11:27:27;;;;;;;0.70;0.50;;;;;;;27.24;30.34;101674.53;5053925;28;20388;-86
2023/09/27 11:29:53;;;;;;;0.63;0.40;;;;;;;27.34;30.33;101668.41;5054452;28;20451;-86
2023/09/27 11:32:20;;;;;;;0.30;0.30;;;;;;;27.46;30.52;101669.88;5038647;28;20397;-85